createdAt,value
2019-03-05T00:00:11.511Z,930.79
2019-03-05T00:00:24.543Z,930.78
2019-03-05T00:00:37.549Z,930.79
2019-03-05T00:00:50.539Z,930.82
2019-03-05T00:01:03.532Z,930.83
2019-03-05T00:01:16.551Z,930.83
2019-03-05T00:01:29.191Z,930.84
2019-03-05T00:01:41.749Z,930.79
2019-03-05T00:01:54.778Z,930.86
2019-03-05T00:02:07.867Z,930.81
2019-03-05T00:02:20.824Z,930.8
2019-03-05T00:02:33.855Z,930.83
2019-03-05T00:02:46.856Z,930.85
2019-03-05T00:02:59.929Z,930.85
2019-03-05T00:03:12.976Z,930.85
2019-03-05T00:03:26.030Z,930.82
2019-03-05T00:03:39.069Z,930.88
2019-03-05T00:03:52.067Z,930.85
2019-03-05T00:04:05.115Z,930.86
2019-03-05T00:04:17.228Z,930.84
2019-03-05T00:04:30.973Z,930.85
2019-03-05T00:04:44.041Z,930.85
2019-03-05T00:04:57.068Z,930.84
2019-03-05T00:05:10.364Z,930.9
2019-03-05T00:05:23.341Z,930.89
2019-03-05T00:05:35.851Z,930.84
2019-03-05T00:05:48.908Z,930.89
2019-03-05T00:06:01.985Z,930.89
2019-03-05T00:06:14.989Z,930.82
2019-03-05T00:06:28.015Z,930.84
2019-03-05T00:06:41.018Z,930.9
2019-03-05T00:06:54.047Z,930.87
2019-03-05T00:07:07.030Z,930.86
2019-03-05T00:07:20.036Z,930.85
2019-03-05T00:07:33.071Z,930.87
2019-03-05T00:07:46.063Z,930.87
2019-03-05T00:07:59.057Z,930.85
2019-03-05T00:08:12.062Z,930.85
2019-03-05T00:08:25.143Z,930.85
2019-03-05T00:08:38.062Z,930.85
2019-03-05T00:08:51.032Z,930.84
2019-03-05T00:09:04.007Z,930.87
2019-03-05T00:09:17.045Z,930.89
2019-03-05T00:09:30.018Z,930.84
2019-03-05T00:09:43.011Z,930.83
2019-03-05T00:09:56.058Z,930.88
2019-03-05T00:10:09.090Z,930.83
2019-03-05T00:10:22.062Z,930.84
2019-03-05T00:10:35.079Z,930.88
2019-03-05T00:10:48.074Z,930.88
2019-03-05T00:11:01.075Z,930.86
2019-03-05T00:11:14.129Z,930.85
2019-03-05T00:11:27.161Z,930.87
2019-03-05T00:11:40.128Z,930.86
2019-03-05T00:11:53.100Z,930.88
2019-03-05T00:12:06.117Z,930.91
2019-03-05T00:12:19.166Z,930.91
2019-03-05T00:12:32.135Z,930.87
2019-03-05T00:12:45.142Z,930.86
2019-03-05T00:12:58.187Z,930.88
2019-03-05T00:13:11.176Z,930.89
2019-03-05T00:13:24.202Z,930.88
2019-03-05T00:13:37.228Z,930.9
2019-03-05T00:13:50.278Z,930.9
2019-03-05T00:14:03.312Z,930.89
2019-03-05T00:14:18.691Z,930.9
2019-03-05T00:14:31.886Z,930.89
2019-03-05T00:14:44.871Z,930.84
2019-03-05T00:14:57.801Z,930.86
2019-03-05T00:15:10.804Z,930.89
2019-03-05T00:15:23.792Z,930.87
2019-03-05T00:15:36.811Z,930.86
2019-03-05T00:15:49.814Z,930.86
2019-03-05T00:16:02.850Z,930.83
2019-03-05T00:16:15.858Z,930.85
2019-03-05T00:16:28.931Z,930.87
2019-03-05T00:16:42.014Z,930.9
2019-03-05T00:16:55.031Z,930.9
2019-03-05T00:17:08.098Z,930.89
2019-03-05T00:17:21.135Z,930.88
2019-03-05T00:17:34.100Z,930.87
2019-03-05T00:17:47.116Z,930.92
2019-03-05T00:18:00.135Z,930.86
2019-03-05T00:18:13.127Z,930.86
2019-03-05T00:18:26.113Z,930.9
2019-03-05T00:18:39.105Z,930.87
2019-03-05T00:18:52.129Z,930.89
2019-03-05T00:19:05.124Z,930.87
2019-03-05T00:19:18.113Z,930.88
2019-03-05T00:19:31.835Z,930.91
2019-03-05T00:19:44.913Z,930.89
2019-03-05T00:19:57.940Z,930.89
2019-03-05T00:20:10.931Z,930.89
2019-03-05T00:20:23.934Z,930.89
2019-03-05T00:20:36.941Z,930.9
2019-03-05T00:20:49.541Z,930.89
2019-03-05T00:21:02.571Z,930.9
2019-03-05T00:21:15.641Z,930.9
2019-03-05T00:21:28.634Z,930.89
2019-03-05T00:21:41.631Z,930.92
2019-03-05T00:21:54.176Z,930.93
2019-03-05T00:22:07.188Z,930.97
2019-03-05T00:22:20.216Z,930.93
2019-03-05T00:22:33.210Z,930.95
2019-03-05T00:22:46.249Z,930.96
2019-03-05T00:22:59.312Z,930.96
2019-03-05T00:23:12.585Z,930.94
2019-03-05T00:23:25.607Z,930.95
2019-03-05T00:23:38.625Z,930.98
2019-03-05T00:23:51.243Z,930.96
2019-03-05T00:24:04.252Z,930.99
2019-03-05T00:24:17.289Z,930.99
2019-03-05T00:24:30.269Z,930.96
2019-03-05T00:24:43.230Z,930.95
2019-03-05T00:24:56.251Z,930.98
2019-03-05T00:25:08.819Z,930.99
2019-03-05T00:25:21.848Z,930.98
2019-03-05T00:25:34.843Z,931.01
2019-03-05T00:25:47.834Z,931.02
2019-03-05T00:26:00.778Z,931.01
2019-03-05T00:26:13.779Z,931.02
2019-03-05T00:26:26.763Z,931
2019-03-05T00:26:39.786Z,931.05
2019-03-05T00:26:52.814Z,931.05
2019-03-05T00:27:05.804Z,931.05
2019-03-05T00:27:18.855Z,931.04
2019-03-05T00:27:31.906Z,931.05
2019-03-05T00:27:44.464Z,931.04
2019-03-05T00:27:57.508Z,931
2019-03-05T00:28:10.491Z,931.03
2019-03-05T00:28:23.471Z,931.09
2019-03-05T00:28:36.019Z,931.02
2019-03-05T00:28:49.025Z,931.03
2019-03-05T00:29:02.022Z,931.04
2019-03-05T00:29:15.132Z,931.03
2019-03-05T00:29:28.164Z,931.03
2019-03-05T00:29:41.132Z,931.04
2019-03-05T00:29:54.201Z,931.04
2019-03-05T00:30:07.366Z,931.03
2019-03-05T00:30:20.361Z,931.04
2019-03-05T00:30:33.423Z,931.06
2019-03-05T00:30:46.419Z,931.03
2019-03-05T00:30:59.457Z,931.05
2019-03-05T00:31:12.482Z,931.04
2019-03-05T00:31:25.477Z,931.06
2019-03-05T00:31:38.436Z,931.05
2019-03-05T00:31:51.429Z,931.01
2019-03-05T00:32:04.474Z,931.05
2019-03-05T00:32:17.539Z,931.05
2019-03-05T00:32:30.494Z,931.07
2019-03-05T00:32:43.483Z,931.08
2019-03-05T00:32:56.452Z,931.06
2019-03-05T00:33:09.563Z,931.06
2019-03-05T00:33:22.596Z,931.04
2019-03-05T00:33:37.017Z,931.04
2019-03-05T00:33:50.057Z,931.02
2019-03-05T00:34:03.105Z,931.08
2019-03-05T00:34:16.140Z,931.09
2019-03-05T00:34:28.674Z,931.08
2019-03-05T00:34:41.922Z,931.07
2019-03-05T00:34:54.983Z,931.08
2019-03-05T00:35:08.045Z,931.08
2019-03-05T00:35:21.060Z,931.1
2019-03-05T00:35:34.009Z,931.12
2019-03-05T00:35:47.028Z,931.11
2019-03-05T00:36:00.082Z,931.08
2019-03-05T00:36:13.186Z,931.11
2019-03-05T00:36:26.348Z,931.08
2019-03-05T00:36:39.342Z,931.1
2019-03-05T00:36:52.359Z,931.08
2019-03-05T00:37:05.430Z,931.07
2019-03-05T00:37:18.449Z,931.08
2019-03-05T00:37:31.503Z,931.11
2019-03-05T00:37:44.489Z,931.1
2019-03-05T00:37:57.502Z,931.12
2019-03-05T00:38:10.547Z,931.14
2019-03-05T00:38:23.608Z,931.15
2019-03-05T00:38:36.597Z,931.13
2019-03-05T00:38:49.738Z,931.14
2019-03-05T00:39:02.752Z,931.14
2019-03-05T00:39:15.790Z,931.13
2019-03-05T00:39:28.773Z,931.17
2019-03-05T00:39:41.336Z,931.15
2019-03-05T00:39:54.418Z,931.21
2019-03-05T00:40:07.465Z,931.17
2019-03-05T00:40:20.480Z,931.16
2019-03-05T00:40:33.529Z,931.16
2019-03-05T00:40:46.632Z,931.17
2019-03-05T00:40:59.661Z,931.16
2019-03-05T00:41:12.635Z,931.16
2019-03-05T00:41:25.701Z,931.17
2019-03-05T00:41:38.713Z,931.21
2019-03-05T00:41:51.728Z,931.2
2019-03-05T00:42:04.796Z,931.17
2019-03-05T00:42:17.789Z,931.19
2019-03-05T00:42:30.328Z,931.19
2019-03-05T00:42:43.402Z,931.17
2019-03-05T00:42:56.418Z,931.17
2019-03-05T00:43:09.430Z,931.19
2019-03-05T00:43:22.384Z,931.19
2019-03-05T00:43:35.411Z,931.19
2019-03-05T00:43:48.433Z,931.17
2019-03-05T00:44:01.451Z,931.2
2019-03-05T00:44:14.502Z,931.18
2019-03-05T00:44:27.536Z,931.21
2019-03-05T00:44:40.593Z,931.19
2019-03-05T00:44:53.596Z,931.17
2019-03-05T00:45:06.627Z,931.19
2019-03-05T00:45:19.649Z,931.17
2019-03-05T00:45:32.710Z,931.18
2019-03-05T00:45:45.760Z,931.2
2019-03-05T00:45:58.773Z,931.18
2019-03-05T00:46:11.837Z,931.22
2019-03-05T00:46:24.930Z,931.19
2019-03-05T00:46:37.955Z,931.19
2019-03-05T00:46:51.012Z,931.19
2019-03-05T00:47:03.612Z,931.19
2019-03-05T00:47:16.634Z,931.22
2019-03-05T00:47:29.661Z,931.22
2019-03-05T00:47:42.748Z,931.17
2019-03-05T00:47:55.698Z,931.2
2019-03-05T00:48:11.201Z,931.23
2019-03-05T00:48:24.441Z,931.25
2019-03-05T00:48:37.554Z,931.18
2019-03-05T00:48:50.502Z,931.22
2019-03-05T00:49:03.471Z,931.21
2019-03-05T00:49:16.500Z,931.22
2019-03-05T00:49:29.511Z,931.22
2019-03-05T00:49:43.452Z,931.21
2019-03-05T00:49:56.393Z,931.26
2019-03-05T00:50:09.459Z,931.24
2019-03-05T00:50:22.497Z,931.25
2019-03-05T00:50:35.623Z,931.26
2019-03-05T00:50:48.596Z,931.25
2019-03-05T00:51:01.622Z,931.31
2019-03-05T00:51:25.515Z,931.27
2019-03-05T00:51:38.570Z,931.29
2019-03-05T00:51:51.602Z,931.32
2019-03-05T00:52:04.591Z,931.31
2019-03-05T00:52:17.619Z,931.31
2019-03-05T00:52:30.214Z,931.31
2019-03-05T00:52:43.261Z,931.3
2019-03-05T00:52:56.260Z,931.29
2019-03-05T00:53:09.344Z,931.31
2019-03-05T00:53:22.388Z,931.29
2019-03-05T00:53:35.440Z,931.32
2019-03-05T00:53:48.443Z,931.3
2019-03-05T00:54:01.017Z,931.33
2019-03-05T00:54:14.091Z,931.3
2019-03-05T00:54:27.156Z,931.31
2019-03-05T00:54:39.729Z,931.33
2019-03-05T00:54:52.720Z,931.34
2019-03-05T00:55:05.668Z,931.32
2019-03-05T00:55:18.623Z,931.31
2019-03-05T00:55:31.586Z,931.31
2019-03-05T00:55:44.517Z,931.31
2019-03-05T00:56:00.006Z,931.32
2019-03-05T00:56:13.046Z,931.32
2019-03-05T00:56:25.992Z,931.33
2019-03-05T00:56:38.946Z,931.3
2019-03-05T00:56:51.499Z,931.3
2019-03-05T00:57:04.554Z,931.31
2019-03-05T00:57:17.539Z,931.33
2019-03-05T00:57:30.517Z,931.33
2019-03-05T00:57:43.534Z,931.31
2019-03-05T00:57:56.118Z,931.32
2019-03-05T00:58:09.165Z,931.29
2019-03-05T00:58:22.184Z,931.34
2019-03-05T00:58:35.275Z,931.3
2019-03-05T00:58:48.260Z,931.29
2019-03-05T00:59:01.295Z,931.32
2019-03-05T00:59:14.258Z,931.26
2019-03-05T00:59:27.255Z,931.32
2019-03-05T00:59:40.229Z,931.31
2019-03-05T00:59:53.299Z,931.29
2019-03-05T01:00:06.328Z,931.3
2019-03-05T01:00:18.870Z,931.31
2019-03-05T01:00:31.903Z,931.29
2019-03-05T01:00:44.883Z,931.29
2019-03-05T01:00:57.889Z,931.3
2019-03-05T01:01:10.841Z,931.31
2019-03-05T01:01:23.898Z,931.29
2019-03-05T01:01:36.920Z,931.32
2019-03-05T01:01:50.773Z,931.29
2019-03-05T01:02:03.798Z,931.31
2019-03-05T01:02:16.810Z,931.29
2019-03-05T01:02:29.920Z,931.31
2019-03-05T01:02:42.884Z,931.29
2019-03-05T01:02:55.933Z,931.34
2019-03-05T01:03:08.607Z,931.31
2019-03-05T01:03:21.634Z,931.33
2019-03-05T01:03:34.675Z,931.32
2019-03-05T01:03:47.744Z,931.34
2019-03-05T01:04:00.835Z,931.35
2019-03-05T01:04:13.955Z,931.37
2019-03-05T01:04:26.969Z,931.36
2019-03-05T01:04:39.982Z,931.36
2019-03-05T01:04:53.620Z,931.41
2019-03-05T01:05:06.631Z,931.37
2019-03-05T01:05:19.684Z,931.4
2019-03-05T01:05:32.704Z,931.36
2019-03-05T01:05:45.683Z,931.39
2019-03-05T01:05:57.763Z,931.38
2019-03-05T01:06:10.773Z,931.34
2019-03-05T01:06:23.841Z,931.38
2019-03-05T01:06:36.824Z,931.38
2019-03-05T01:06:49.721Z,931.39
2019-03-05T01:07:02.233Z,931.4
2019-03-05T01:07:15.257Z,931.36
2019-03-05T01:07:28.286Z,931.38
2019-03-05T01:07:41.322Z,931.42
2019-03-05T01:07:54.304Z,931.38
2019-03-05T01:08:07.399Z,931.38
2019-03-05T01:08:20.906Z,931.38
2019-03-05T01:08:33.508Z,931.37
2019-03-05T01:08:46.532Z,931.41
2019-03-05T01:08:59.564Z,931.43
2019-03-05T01:09:12.532Z,931.41
2019-03-05T01:09:25.549Z,931.42
2019-03-05T01:09:38.572Z,931.38
2019-03-05T01:09:51.565Z,931.39
2019-03-05T01:10:04.605Z,931.4
2019-03-05T01:10:17.608Z,931.4
2019-03-05T01:10:30.581Z,931.39
2019-03-05T01:10:43.630Z,931.38
2019-03-05T01:10:56.681Z,931.41
2019-03-05T01:11:09.234Z,931.36
2019-03-05T01:11:22.204Z,931.39
2019-03-05T01:11:35.177Z,931.39
2019-03-05T01:11:48.188Z,931.38
2019-03-05T01:12:00.746Z,931.36
2019-03-05T01:12:13.862Z,931.36
2019-03-05T01:12:26.877Z,931.37
2019-03-05T01:12:39.937Z,931.4
2019-03-05T01:12:53.041Z,931.36
2019-03-05T01:13:06.036Z,931.37
2019-03-05T01:13:19.032Z,931.4
2019-03-05T01:13:32.108Z,931.39
2019-03-05T01:13:45.120Z,931.38
2019-03-05T01:13:58.165Z,931.38
2019-03-05T01:14:11.174Z,931.38
2019-03-05T01:14:24.211Z,931.36
2019-03-05T01:14:37.270Z,931.4
2019-03-05T01:14:50.327Z,931.38
2019-03-05T01:15:03.357Z,931.38
2019-03-05T01:15:16.388Z,931.39
2019-03-05T01:15:29.427Z,931.41
2019-03-05T01:15:42.431Z,931.39
2019-03-05T01:15:55.483Z,931.42
2019-03-05T01:16:08.506Z,931.41
2019-03-05T01:16:21.480Z,931.41
2019-03-05T01:16:34.458Z,931.44
2019-03-05T01:16:47.497Z,931.42
2019-03-05T01:17:00.531Z,931.42
2019-03-05T01:17:13.490Z,931.44
2019-03-05T01:17:26.493Z,931.46
2019-03-05T01:17:39.426Z,931.4
2019-03-05T01:17:52.401Z,931.43
2019-03-05T01:18:05.364Z,931.44
2019-03-05T01:18:18.375Z,931.44
2019-03-05T01:18:31.383Z,931.48
2019-03-05T01:18:44.375Z,931.47
2019-03-05T01:18:57.476Z,931.48
2019-03-05T01:19:10.480Z,931.42
2019-03-05T01:19:23.040Z,931.45
2019-03-05T01:19:36.081Z,931.43
2019-03-05T01:19:50.047Z,931.48
2019-03-05T01:20:03.135Z,931.46
2019-03-05T01:20:16.160Z,931.47
2019-03-05T01:20:29.202Z,931.45
2019-03-05T01:20:42.273Z,931.48
2019-03-05T01:20:55.253Z,931.47
2019-03-05T01:21:08.288Z,931.51
2019-03-05T01:21:21.374Z,931.47
2019-03-05T01:21:34.307Z,931.47
2019-03-05T01:21:47.319Z,931.43
2019-03-05T01:22:00.405Z,931.47
2019-03-05T01:22:13.442Z,931.45
2019-03-05T01:22:26.537Z,931.48
2019-03-05T01:22:39.576Z,931.47
2019-03-05T01:22:52.639Z,931.48
2019-03-05T01:23:05.648Z,931.47
2019-03-05T01:23:18.676Z,931.44
2019-03-05T01:23:31.702Z,931.47
2019-03-05T01:23:44.733Z,931.46
2019-03-05T01:23:57.715Z,931.48
2019-03-05T01:24:10.255Z,931.47
2019-03-05T01:24:23.353Z,931.45
2019-03-05T01:24:36.337Z,931.47
2019-03-05T01:24:49.283Z,931.44
2019-03-05T01:25:02.286Z,931.48
2019-03-05T01:25:15.245Z,931.47
2019-03-05T01:25:28.296Z,931.43
2019-03-05T01:25:41.330Z,931.47
2019-03-05T01:25:54.320Z,931.44
2019-03-05T01:26:07.352Z,931.46
2019-03-05T01:26:20.323Z,931.45
2019-03-05T01:26:33.349Z,931.4
2019-03-05T01:26:46.372Z,931.42
2019-03-05T01:26:59.400Z,931.43
2019-03-05T01:27:12.396Z,931.43
2019-03-05T01:27:25.405Z,931.43
2019-03-05T01:27:38.443Z,931.44
2019-03-05T01:27:51.414Z,931.46
2019-03-05T01:28:03.986Z,931.45
2019-03-05T01:28:17.005Z,931.41
2019-03-05T01:28:30.081Z,931.41
2019-03-05T01:28:43.144Z,931.44
2019-03-05T01:28:56.195Z,931.42
2019-03-05T01:29:09.281Z,931.4
2019-03-05T01:29:22.253Z,931.4
2019-03-05T01:29:35.267Z,931.39
2019-03-05T01:29:48.222Z,931.39
2019-03-05T01:30:01.435Z,931.4
2019-03-05T01:30:14.456Z,931.38
2019-03-05T01:30:27.513Z,931.43
2019-03-05T01:30:40.536Z,931.41
2019-03-05T01:30:53.487Z,931.41
2019-03-05T01:31:06.448Z,931.43
2019-03-05T01:31:19.534Z,931.41
2019-03-05T01:31:32.658Z,931.42
2019-03-05T01:31:45.625Z,931.4
2019-03-05T01:31:58.142Z,931.42
2019-03-05T01:32:11.221Z,931.41
2019-03-05T01:32:24.259Z,931.43
2019-03-05T01:32:37.256Z,931.43
2019-03-05T01:32:50.279Z,931.42
2019-03-05T01:33:03.251Z,931.43
2019-03-05T01:33:16.264Z,931.4
2019-03-05T01:33:29.272Z,931.4
2019-03-05T01:33:42.343Z,931.43
2019-03-05T01:33:55.338Z,931.41
2019-03-05T01:34:08.300Z,931.42
2019-03-05T01:34:21.344Z,931.4
2019-03-05T01:34:34.389Z,931.42
2019-03-05T01:34:47.463Z,931.41
2019-03-05T01:35:01.419Z,931.43
2019-03-05T01:35:14.468Z,931.4
2019-03-05T01:35:27.519Z,931.41
2019-03-05T01:35:40.504Z,931.41
2019-03-05T01:35:53.535Z,931.42
2019-03-05T01:36:06.576Z,931.39
2019-03-05T01:36:19.623Z,931.39
2019-03-05T01:36:32.620Z,931.4
2019-03-05T01:36:45.692Z,931.38
2019-03-05T01:36:58.718Z,931.38
2019-03-05T01:37:11.780Z,931.44
2019-03-05T01:37:24.788Z,931.42
2019-03-05T01:37:37.794Z,931.4
2019-03-05T01:37:50.790Z,931.42
2019-03-05T01:38:03.759Z,931.42
2019-03-05T01:38:16.827Z,931.39
2019-03-05T01:38:29.526Z,931.37
2019-03-05T01:38:42.563Z,931.35
2019-03-05T01:38:55.529Z,931.39
2019-03-05T01:39:08.494Z,931.35
2019-03-05T01:39:21.513Z,931.37
2019-03-05T01:39:34.543Z,931.36
2019-03-05T01:39:47.631Z,931.35
2019-03-05T01:40:00.672Z,931.34
2019-03-05T01:40:13.734Z,931.34
2019-03-05T01:40:26.704Z,931.34
2019-03-05T01:40:39.750Z,931.37
2019-03-05T01:40:52.744Z,931.32
2019-03-05T01:41:05.785Z,931.35
2019-03-05T01:41:18.797Z,931.33
2019-03-05T01:41:31.877Z,931.32
2019-03-05T01:41:44.963Z,931.32
2019-03-05T01:41:57.533Z,931.33
2019-03-05T01:42:10.579Z,931.34
2019-03-05T01:42:23.591Z,931.34
2019-03-05T01:42:36.136Z,931.35
2019-03-05T01:42:49.096Z,931.35
2019-03-05T01:43:02.105Z,931.33
2019-03-05T01:43:15.142Z,931.38
2019-03-05T01:43:28.175Z,931.35
2019-03-05T01:43:41.133Z,931.35
2019-03-05T01:43:54.162Z,931.34
2019-03-05T01:44:07.231Z,931.37
2019-03-05T01:44:20.302Z,931.38
2019-03-05T01:44:33.244Z,931.35
2019-03-05T01:44:46.304Z,931.34
2019-03-05T01:44:59.336Z,931.33
2019-03-05T01:45:12.384Z,931.39
2019-03-05T01:45:25.381Z,931.39
2019-03-05T01:45:38.047Z,931.37
2019-03-05T01:45:51.051Z,931.41
2019-03-05T01:46:04.041Z,931.39
2019-03-05T01:46:17.086Z,931.41
2019-03-05T01:46:30.036Z,931.42
2019-03-05T01:46:43.046Z,931.38
2019-03-05T01:46:56.014Z,931.39
2019-03-05T01:47:09.030Z,931.44
2019-03-05T01:47:22.145Z,931.41
2019-03-05T01:47:35.203Z,931.42
2019-03-05T01:47:48.141Z,931.43
2019-03-05T01:48:01.125Z,931.43
2019-03-05T01:48:14.118Z,931.47
2019-03-05T01:48:27.133Z,931.45
2019-03-05T01:48:40.128Z,931.41
2019-03-05T01:48:53.158Z,931.38
2019-03-05T01:49:06.155Z,931.44
2019-03-05T01:49:19.225Z,931.44
2019-03-05T01:49:32.323Z,931.38
2019-03-05T01:49:45.408Z,931.43
2019-03-05T01:49:59.121Z,931.43
2019-03-05T01:50:12.155Z,931.38
2019-03-05T01:50:25.198Z,931.43
2019-03-05T01:50:38.185Z,931.43
2019-03-05T01:50:51.236Z,931.42
2019-03-05T01:51:03.806Z,931.39
2019-03-05T01:51:16.817Z,931.4
2019-03-05T01:51:29.820Z,931.38
2019-03-05T01:51:42.787Z,931.41
2019-03-05T01:51:55.803Z,931.39
2019-03-05T01:52:08.832Z,931.36
2019-03-05T01:52:21.893Z,931.37
2019-03-05T01:52:34.926Z,931.39
2019-03-05T01:52:47.935Z,931.41
2019-03-05T01:53:00.913Z,931.35
2019-03-05T01:53:13.948Z,931.36
2019-03-05T01:53:26.941Z,931.36
2019-03-05T01:53:39.939Z,931.36
2019-03-05T01:53:52.962Z,931.34
2019-03-05T01:54:05.920Z,931.35
2019-03-05T01:54:18.949Z,931.33
2019-03-05T01:54:31.949Z,931.33
2019-03-05T01:54:44.944Z,931.34
2019-03-05T01:54:57.933Z,931.36
2019-03-05T01:55:11.032Z,931.34
2019-03-05T01:55:24.086Z,931.35
2019-03-05T01:55:37.120Z,931.34
2019-03-05T01:55:50.205Z,931.38
2019-03-05T01:56:03.217Z,931.35
2019-03-05T01:56:16.259Z,931.35
2019-03-05T01:56:29.240Z,931.37
2019-03-05T01:56:42.294Z,931.35
2019-03-05T01:56:55.295Z,931.36
2019-03-05T01:57:08.312Z,931.36
2019-03-05T01:57:21.261Z,931.33
2019-03-05T01:57:34.262Z,931.34
2019-03-05T01:57:47.258Z,931.32
2019-03-05T01:58:00.313Z,931.35
2019-03-05T01:58:13.385Z,931.33
2019-03-05T01:58:26.412Z,931.35
2019-03-05T01:58:39.540Z,931.35
2019-03-05T01:58:52.634Z,931.36
2019-03-05T01:59:05.746Z,931.35
2019-03-05T01:59:18.803Z,931.36
2019-03-05T01:59:31.750Z,931.37
2019-03-05T01:59:44.817Z,931.35
2019-03-05T01:59:57.822Z,931.36
2019-03-05T02:00:12.941Z,931.36
2019-03-05T02:00:25.950Z,931.31
2019-03-05T02:00:39.009Z,931.35
2019-03-05T02:00:52.011Z,931.31
2019-03-05T02:01:05.099Z,931.32
2019-03-05T02:01:17.630Z,931.28
2019-03-05T02:01:30.608Z,931.32
2019-03-05T02:01:43.594Z,931.31
2019-03-05T02:01:56.722Z,931.31
2019-03-05T02:02:09.749Z,931.29
2019-03-05T02:02:22.754Z,931.3
2019-03-05T02:02:35.774Z,931.29
2019-03-05T02:02:48.762Z,931.27
2019-03-05T02:03:01.861Z,931.31
2019-03-05T02:03:14.885Z,931.28
2019-03-05T02:03:27.920Z,931.26
2019-03-05T02:03:40.941Z,931.25
2019-03-05T02:03:53.949Z,931.26
2019-03-05T02:04:06.993Z,931.26
2019-03-05T02:04:20.027Z,931.29
2019-03-05T02:04:33.028Z,931.29
2019-03-05T02:04:46.119Z,931.26
2019-03-05T02:05:00.000Z,931.26
2019-03-05T02:05:13.051Z,931.25
2019-03-05T02:05:26.061Z,931.25
2019-03-05T02:05:39.088Z,931.26
2019-03-05T02:05:51.652Z,931.21
2019-03-05T02:06:04.206Z,931.2
2019-03-05T02:06:17.181Z,931.21
2019-03-05T02:06:30.276Z,931.21
2019-03-05T02:06:43.316Z,931.18
2019-03-05T02:06:56.397Z,931.2
2019-03-05T02:07:09.437Z,931.21
2019-03-05T02:07:22.445Z,931.2
2019-03-05T02:07:35.546Z,931.2
2019-03-05T02:07:48.508Z,931.18
2019-03-05T02:08:01.189Z,931.2
2019-03-05T02:08:14.266Z,931.17
2019-03-05T02:08:27.333Z,931.18
2019-03-05T02:08:40.346Z,931.23
2019-03-05T02:08:53.340Z,931.21
2019-03-05T02:09:06.288Z,931.22
2019-03-05T02:09:19.306Z,931.21
2019-03-05T02:09:32.343Z,931.21
2019-03-05T02:09:45.333Z,931.18
2019-03-05T02:09:58.385Z,931.21
2019-03-05T02:10:11.356Z,931.21
2019-03-05T02:10:24.411Z,931.21
2019-03-05T02:10:37.417Z,931.19
2019-03-05T02:10:50.473Z,931.21
2019-03-05T02:11:03.475Z,931.2
2019-03-05T02:11:16.417Z,931.18
2019-03-05T02:11:28.962Z,931.22
2019-03-05T02:11:41.970Z,931.21
2019-03-05T02:11:54.526Z,931.23
2019-03-05T02:12:07.519Z,931.26
2019-03-05T02:12:20.536Z,931.22
2019-03-05T02:12:33.575Z,931.2
2019-03-05T02:12:46.583Z,931.21
2019-03-05T02:12:59.579Z,931.22
2019-03-05T02:13:12.577Z,931.21
2019-03-05T02:13:25.582Z,931.24
2019-03-05T02:13:38.595Z,931.25
2019-03-05T02:13:51.587Z,931.24
2019-03-05T02:14:04.663Z,931.28
2019-03-05T02:14:17.707Z,931.24
2019-03-05T02:14:30.747Z,931.24
2019-03-05T02:14:43.753Z,931.24
2019-03-05T02:14:56.741Z,931.27
2019-03-05T02:15:09.703Z,931.28
2019-03-05T02:15:22.746Z,931.28
2019-03-05T02:15:35.782Z,931.29
2019-03-05T02:15:48.728Z,931.29
2019-03-05T02:16:01.756Z,931.31
2019-03-05T02:16:14.805Z,931.28
2019-03-05T02:16:27.889Z,931.28
2019-03-05T02:16:40.903Z,931.29
2019-03-05T02:16:53.955Z,931.33
2019-03-05T02:17:06.945Z,931.27
2019-03-05T02:17:19.476Z,931.27
2019-03-05T02:17:32.546Z,931.32
2019-03-05T02:17:45.640Z,931.29
2019-03-05T02:17:58.677Z,931.27
2019-03-05T02:18:11.708Z,931.34
2019-03-05T02:18:24.760Z,931.3
2019-03-05T02:18:37.744Z,931.27
2019-03-05T02:18:50.774Z,931.24
2019-03-05T02:19:03.848Z,931.26
2019-03-05T02:19:16.926Z,931.26
2019-03-05T02:19:29.935Z,931.23
2019-03-05T02:19:43.011Z,931.26
2019-03-05T02:19:56.099Z,931.23
2019-03-05T02:20:09.772Z,931.2
2019-03-05T02:20:22.798Z,931.22
2019-03-05T02:20:35.762Z,931.25
2019-03-05T02:20:48.791Z,931.2
2019-03-05T02:21:01.833Z,931.22
2019-03-05T02:21:14.954Z,931.21
2019-03-05T02:21:28.025Z,931.18
2019-03-05T02:21:41.075Z,931.19
2019-03-05T02:21:54.056Z,931.19
2019-03-05T02:22:07.081Z,931.18
2019-03-05T02:22:20.132Z,931.18
2019-03-05T02:22:33.137Z,931.16
2019-03-05T02:22:46.210Z,931.19
2019-03-05T02:22:59.188Z,931.21
2019-03-05T02:23:12.278Z,931.17
2019-03-05T02:23:25.332Z,931.18
2019-03-05T02:23:38.331Z,931.12
2019-03-05T02:23:51.330Z,931.16
2019-03-05T02:24:03.895Z,931.12
2019-03-05T02:24:16.921Z,931.17
2019-03-05T02:24:29.923Z,931.12
2019-03-05T02:24:42.979Z,931.17
2019-03-05T02:24:55.963Z,931.15
2019-03-05T02:25:08.602Z,931.16
2019-03-05T02:25:21.709Z,931.17
2019-03-05T02:25:34.698Z,931.15
2019-03-05T02:25:47.695Z,931.16
2019-03-05T02:26:00.686Z,931.16
2019-03-05T02:26:13.695Z,931.14
2019-03-05T02:26:26.699Z,931.17
2019-03-05T02:26:39.704Z,931.14
2019-03-05T02:26:52.690Z,931.18
2019-03-05T02:27:05.687Z,931.17
2019-03-05T02:27:18.674Z,931.18
2019-03-05T02:27:31.707Z,931.13
2019-03-05T02:27:44.699Z,931.19
2019-03-05T02:27:57.647Z,931.17
2019-03-05T02:28:10.603Z,931.2
2019-03-05T02:28:23.616Z,931.16
2019-03-05T02:28:36.668Z,931.2
2019-03-05T02:28:49.697Z,931.19
2019-03-05T02:29:02.698Z,931.19
2019-03-05T02:29:15.785Z,931.2
2019-03-05T02:29:28.767Z,931.19
2019-03-05T02:29:41.837Z,931.18
2019-03-05T02:29:54.835Z,931.17
2019-03-05T02:30:07.962Z,931.18
2019-03-05T02:30:20.965Z,931.2
2019-03-05T02:30:33.996Z,931.19
2019-03-05T02:30:47.012Z,931.21
2019-03-05T02:31:00.107Z,931.18
2019-03-05T02:31:13.224Z,931.23
2019-03-05T02:31:26.206Z,931.22
2019-03-05T02:31:39.325Z,931.21
2019-03-05T02:31:52.417Z,931.21
2019-03-05T02:32:05.434Z,931.19
2019-03-05T02:32:18.460Z,931.19
2019-03-05T02:32:31.505Z,931.18
2019-03-05T02:32:44.494Z,931.2
2019-03-05T02:32:57.095Z,931.17
2019-03-05T02:33:09.655Z,931.22
2019-03-05T02:33:22.716Z,931.18
2019-03-05T02:33:35.729Z,931.19
2019-03-05T02:33:48.742Z,931.18
2019-03-05T02:34:01.800Z,931.18
2019-03-05T02:34:14.865Z,931.2
2019-03-05T02:34:27.928Z,931.23
2019-03-05T02:34:40.949Z,931.22
2019-03-05T02:34:53.937Z,931.2
2019-03-05T02:35:06.990Z,931.22
2019-03-05T02:35:20.482Z,931.21
2019-03-05T02:35:33.592Z,931.21
2019-03-05T02:35:46.626Z,931.21
2019-03-05T02:35:59.654Z,931.19
2019-03-05T02:36:12.846Z,931.16
2019-03-05T02:36:25.919Z,931.15
2019-03-05T02:36:38.900Z,931.18
2019-03-05T02:36:51.417Z,931.22
2019-03-05T02:37:03.988Z,931.19
2019-03-05T02:37:17.081Z,931.17
2019-03-05T02:37:30.078Z,931.2
2019-03-05T02:37:42.680Z,931.2
2019-03-05T02:37:55.679Z,931.19
2019-03-05T02:38:12.601Z,931.23
2019-03-05T02:38:25.584Z,931.2
2019-03-05T02:38:38.584Z,931.21
2019-03-05T02:38:51.526Z,931.22
2019-03-05T02:39:04.537Z,931.2
2019-03-05T02:39:17.588Z,931.19
2019-03-05T02:39:30.155Z,931.17
2019-03-05T02:39:43.233Z,931.18
2019-03-05T02:39:56.234Z,931.19
2019-03-05T02:40:09.287Z,931.2
2019-03-05T02:40:22.364Z,931.17
2019-03-05T02:40:35.393Z,931.21
2019-03-05T02:40:48.000Z,931.19
2019-03-05T02:41:00.940Z,931.23
2019-03-05T02:41:13.957Z,931.21
2019-03-05T02:41:27.057Z,931.21
2019-03-05T02:41:40.168Z,931.22
2019-03-05T02:41:53.297Z,931.25
2019-03-05T02:42:06.273Z,931.25
2019-03-05T02:42:19.212Z,931.23
2019-03-05T02:42:32.281Z,931.24
2019-03-05T02:42:45.365Z,931.24
2019-03-05T02:42:58.419Z,931.26
2019-03-05T02:43:11.443Z,931.25